sensor_id;sensor_type;location;lat;lon;timestamp;pressure;altitude;pressure_sealevel;temperature
58909;BMP280;44690;48.154;17.102;2022-10-29T00:00:54;100656.44;;;12.90
58909;BMP280;44690;48.154;17.102;2022-10-29T00:02:26;100656.25;;;12.88
58909;BMP280;44690;48.154;17.102;2022-10-29T00:03:58;100659.72;;;12.88
58909;BMP280;44690;48.154;17.102;2022-10-29T00:05:30;100664.44;;;12.88
58909;BMP280;44690;48.154;17.102;2022-10-29T00:07:02;100674.78;;;12.89
58909;BMP280;44690;48.154;17.102;2022-10-29T00:08:35;100670.78;;;12.90
58909;BMP280;44690;48.154;17.102;2022-10-29T00:10:07;100667.53;;;12.92
58909;BMP280;44690;48.154;17.102;2022-10-29T00:11:39;100668.97;;;12.93
58909;BMP280;44690;48.154;17.102;2022-10-29T00:13:11;100667.69;;;12.94
58909;BMP280;44690;48.154;17.102;2022-10-29T00:14:43;100669.84;;;12.95
58909;BMP280;44690;48.154;17.102;2022-10-29T00:16:19;100669.31;;;12.97
58909;BMP280;44690;48.154;17.102;2022-10-29T00:17:51;100661.88;;;12.97
58909;BMP280;44690;48.154;17.102;2022-10-29T00:19:24;100663.16;;;12.96
58909;BMP280;44690;48.154;17.102;2022-10-29T00:21:00;100669.31;;;12.97
58909;BMP280;44690;48.154;17.102;2022-10-29T00:22:32;100671.31;;;12.96
58909;BMP280;44690;48.154;17.102;2022-10-29T00:24:04;100665.88;;;12.96
58909;BMP280;44690;48.154;17.102;2022-10-29T00:25:36;100663.88;;;12.97
58909;BMP280;44690;48.154;17.102;2022-10-29T00:27:08;100664.59;;;12.97
58909;BMP280;44690;48.154;17.102;2022-10-29T00:28:40;100654.59;;;13.00
58909;BMP280;44690;48.154;17.102;2022-10-29T00:30:12;100659.88;;;12.98
58909;BMP280;44690;48.154;17.102;2022-10-29T00:31:44;100660.59;;;12.98
58909;BMP280;44690;48.154;17.102;2022-10-29T00:33:16;100666.03;;;12.98
58909;BMP280;44690;48.154;17.102;2022-10-29T00:34:50;100651.88;;;13.00
58909;BMP280;44690;48.154;17.102;2022-10-29T00:36:25;100646.25;;;12.98
58909;BMP280;44690;48.154;17.102;2022-10-29T00:37:58;100651.69;;;12.98
58909;BMP280;44690;48.154;17.102;2022-10-29T00:39:30;100659.16;;;12.97
58909;BMP280;44690;48.154;17.102;2022-10-29T00:41:04;100649.69;;;12.98
58909;BMP280;44690;48.154;17.102;2022-10-29T00:42:37;100642.06;;;12.97
58909;BMP280;44690;48.154;17.102;2022-10-29T00:44:21;100646.25;;;12.98
58909;BMP280;44690;48.154;17.102;2022-10-29T00:45:56;100636.44;;;12.95
58909;BMP280;44690;48.154;17.102;2022-10-29T00:47:33;100646.59;;;12.94
58909;BMP280;44690;48.154;17.102;2022-10-29T00:49:06;100641.88;;;12.95
58909;BMP280;44690;48.154;17.102;2022-10-29T00:50:38;100649.31;;;12.94
58909;BMP280;44690;48.154;17.102;2022-10-29T00:52:10;100656.78;;;12.94
58909;BMP280;44690;48.154;17.102;2022-10-29T00:53:44;100643.88;;;12.94
58909;BMP280;44690;48.154;17.102;2022-10-29T00:55:18;100650.25;;;12.97
58909;BMP280;44690;48.154;17.102;2022-10-29T00:57:02;100645.31;;;12.95
58909;BMP280;44690;48.154;17.102;2022-10-29T00:58:35;100643.34;;;12.96
58909;BMP280;44690;48.154;17.102;2022-10-29T01:00:07;100649.53;;;12.96
58909;BMP280;44690;48.154;17.102;2022-10-29T01:01:40;100660.59;;;12.98
58909;BMP280;44690;48.154;17.102;2022-10-29T01:03:12;100651.16;;;12.99
58909;BMP280;44690;48.154;17.102;2022-10-29T01:04:44;100642.41;;;13.01
58909;BMP280;44690;48.154;17.102;2022-10-29T01:06:16;100646.78;;;13.04
58909;BMP280;44690;48.154;17.102;2022-10-29T01:07:48;100644.06;;;13.04
58909;BMP280;44690;48.154;17.102;2022-10-29T01:09:20;100640.59;;;13.04
58909;BMP280;44690;48.154;17.102;2022-10-29T01:18:16;100640.06;;;13.05
58909;BMP280;44690;48.154;17.102;2022-10-29T01:21:38;100639.34;;;13.05
58909;BMP280;44690;48.154;17.102;2022-10-29T01:25:26;100638.78;;;13.06
58909;BMP280;44690;48.154;17.102;2022-10-29T01:30:21;100630.25;;;13.02
58909;BMP280;44690;48.154;17.102;2022-10-29T01:31:55;100635.13;;;13.04
58909;BMP280;44690;48.154;17.102;2022-10-29T01:33:40;100639.88;;;13.03
58909;BMP280;44690;48.154;17.102;2022-10-29T01:35:17;100638.41;;;13.02
58909;BMP280;44690;48.154;17.102;2022-10-29T01:36:58;100633.16;;;13.04
58909;BMP280;44690;48.154;17.102;2022-10-29T01:38:43;100637.88;;;13.04
58909;BMP280;44690;48.154;17.102;2022-10-29T01:44:00;100616.25;;;13.06
58909;BMP280;44690;48.154;17.102;2022-10-29T01:45:42;100612.09;;;13.05
58909;BMP280;44690;48.154;17.102;2022-10-29T01:47:19;100616.25;;;13.06
58909;BMP280;44690;48.154;17.102;2022-10-29T01:48:53;100614.25;;;13.06
58909;BMP280;44690;48.154;17.102;2022-10-29T01:50:25;100616.25;;;13.06
58909;BMP280;44690;48.154;17.102;2022-10-29T01:51:57;100611.38;;;13.04
58909;BMP280;44690;48.154;17.102;2022-10-29T01:53:33;100605.91;;;13.04
58909;BMP280;44690;48.154;17.102;2022-10-29T01:55:06;100600.47;;;13.04
58909;BMP280;44690;48.154;17.102;2022-10-29T01:56:38;100594.25;;;13.04
58909;BMP280;44690;48.154;17.102;2022-10-29T01:58:11;100594.25;;;13.04
58909;BMP280;44690;48.154;17.102;2022-10-29T01:59:43;100601.19;;;13.05
58909;BMP280;44690;48.154;17.102;2022-10-29T02:04:44;100585.38;;;13.03
58909;BMP280;44690;48.154;17.102;2022-10-29T02:07:58;100587.56;;;13.05
58909;BMP280;44690;48.154;17.102;2022-10-29T02:09:40;100586.09;;;13.04
58909;BMP280;44690;48.154;17.102;2022-10-29T02:12:48;100586.84;;;13.04
58909;BMP280;44690;48.154;17.102;2022-10-29T02:14:34;100593.00;;;13.05
58909;BMP280;44690;48.154;17.102;2022-10-29T02:16:09;100595.75;;;13.05
58909;BMP280;44690;48.154;17.102;2022-10-29T02:17:41;100597.19;;;13.06
58909;BMP280;44690;48.154;17.102;2022-10-29T02:19:13;100595.88;;;13.07
58909;BMP280;44690;48.154;17.102;2022-10-29T02:20:45;100594.59;;;13.08
58909;BMP280;44690;48.154;17.102;2022-10-29T02:22:17;100596.06;;;13.09
58909;BMP280;44690;48.154;17.102;2022-10-29T02:23:49;100596.06;;;13.09
58909;BMP280;44690;48.154;17.102;2022-10-29T02:25:21;100589.88;;;13.08
58909;BMP280;44690;48.154;17.102;2022-10-29T02:26:53;100587.16;;;13.08
58909;BMP280;44690;48.154;17.102;2022-10-29T02:28:25;100581.69;;;13.08
58909;BMP280;44690;48.154;17.102;2022-10-29T02:29:57;100577.53;;;13.07
58909;BMP280;44690;48.154;17.102;2022-10-29T02:31:29;100580.97;;;13.08
58909;BMP280;44690;48.154;17.102;2022-10-29T02:33:01;100581.69;;;13.08
58909;BMP280;44690;48.154;17.102;2022-10-29T02:34:33;100580.44;;;13.09
58909;BMP280;44690;48.154;17.102;2022-10-29T02:36:05;100594.78;;;13.10
58909;BMP280;44690;48.154;17.102;2022-10-29T02:37:37;100596.81;;;13.09
58909;BMP280;44690;48.154;17.102;2022-10-29T02:39:09;100596.06;;;13.09
58909;BMP280;44690;48.154;17.102;2022-10-29T02:40:41;100589.88;;;13.08
58909;BMP280;44690;48.154;17.102;2022-10-29T02:42:13;100588.06;;;13.11
58909;BMP280;44690;48.154;17.102;2022-10-29T02:43:45;100584.63;;;13.10
58909;BMP280;44690;48.154;17.102;2022-10-29T02:45:17;100591.16;;;13.07
58909;BMP280;44690;48.154;17.102;2022-10-29T02:46:49;100589.16;;;13.08
58909;BMP280;44690;48.154;17.102;2022-10-29T02:48:21;100587.34;;;13.10
58909;BMP280;44690;48.154;17.102;2022-10-29T02:49:53;100584.44;;;13.08
58909;BMP280;44690;48.154;17.102;2022-10-29T02:51:25;100582.97;;;13.07
58909;BMP280;44690;48.154;17.102;2022-10-29T02:52:57;100577.53;;;13.07
58909;BMP280;44690;48.154;17.102;2022-10-29T02:54:28;100575.38;;;13.06
58909;BMP280;44690;48.154;17.102;2022-10-29T02:56:00;100575.38;;;13.06
58909;BMP280;44690;48.154;17.102;2022-10-29T02:57:32;100575.94;;;13.04
58909;BMP280;44690;48.154;17.102;2022-10-29T02:59:04;100581.91;;;13.02
58909;BMP280;44690;48.154;17.102;2022-10-29T03:00:42;100576.47;;;13.02
58909;BMP280;44690;48.154;17.102;2022-10-29T03:02:14;100590.28;;;13.05
58909;BMP280;44690;48.154;17.102;2022-10-29T03:03:46;100589.56;;;13.04
58909;BMP280;44690;48.154;17.102;2022-10-29T03:05:18;100584.84;;;13.05
58909;BMP280;44690;48.154;17.102;2022-10-29T03:06:50;100583.38;;;13.04
58909;BMP280;44690;48.154;17.102;2022-10-29T03:08:22;100578.66;;;13.04
58909;BMP280;44690;48.154;17.102;2022-10-29T03:09:54;100582.63;;;13.03
58909;BMP280;44690;48.154;17.102;2022-10-29T03:11:26;100584.84;;;13.05
58909;BMP280;44690;48.154;17.102;2022-10-29T03:12:58;100577.19;;;13.03
58909;BMP280;44690;48.154;17.102;2022-10-29T03:14:30;100577.91;;;13.04
58909;BMP280;44690;48.154;17.102;2022-10-29T03:16:02;100580.63;;;13.04
58909;BMP280;44690;48.154;17.102;2022-10-29T03:17:34;100581.38;;;13.04
58909;BMP280;44690;48.154;17.102;2022-10-29T03:19:06;100584.13;;;13.04
58909;BMP280;44690;48.154;17.102;2022-10-29T03:20:37;100578.66;;;13.04
58909;BMP280;44690;48.154;17.102;2022-10-29T03:22:09;100579.19;;;13.02
58909;BMP280;44690;48.154;17.102;2022-10-29T03:23:41;100582.63;;;13.03
58909;BMP280;44690;48.154;17.102;2022-10-29T03:25:13;100575.03;;;13.01
58909;BMP280;44690;48.154;17.102;2022-10-29T03:26:45;100574.28;;;13.01
58909;BMP280;44690;48.154;17.102;2022-10-29T03:28:17;100573.56;;;13.00
58909;BMP280;44690;48.154;17.102;2022-10-29T03:29:49;100559.06;;;12.98
58909;BMP280;44690;48.154;17.102;2022-10-29T03:31:21;100561.78;;;12.98
58909;BMP280;44690;48.154;17.102;2022-10-29T03:32:53;100549.44;;;12.97
58909;BMP280;44690;48.154;17.102;2022-10-29T03:34:25;100552.88;;;12.97
58909;BMP280;44690;48.154;17.102;2022-10-29T03:35:58;100561.06;;;12.97
58909;BMP280;44690;48.154;17.102;2022-10-29T03:37:30;100565.06;;;12.96
58909;BMP280;44690;48.154;17.102;2022-10-29T03:39:02;100565.59;;;12.95
58909;BMP280;44690;48.154;17.102;2022-10-29T03:40:34;100564.34;;;12.96
58909;BMP280;44690;48.154;17.102;2022-10-29T03:42:06;100570.50;;;12.96
58909;BMP280;44690;48.154;17.102;2022-10-29T03:43:38;100561.63;;;12.96
58909;BMP280;44690;48.154;17.102;2022-10-29T03:45:10;100571.03;;;12.95
58909;BMP280;44690;48.154;17.102;2022-10-29T03:46:42;100571.59;;;12.93
58909;BMP280;44690;48.154;17.102;2022-10-29T03:48:14;100571.59;;;12.93
58909;BMP280;44690;48.154;17.102;2022-10-29T03:49:46;100560.00;;;12.93
58909;BMP280;44690;48.154;17.102;2022-10-29T03:51:18;100555.25;;;12.93
58909;BMP280;44690;48.154;17.102;2022-10-29T03:52:49;100557.28;;;12.93
58909;BMP280;44690;48.154;17.102;2022-10-29T03:54:21;100570.16;;;12.92
58909;BMP280;44690;48.154;17.102;2022-10-29T03:55:54;100556.56;;;12.92
58909;BMP280;44690;48.154;17.102;2022-10-29T03:57:26;100574.91;;;12.92
58909;BMP280;44690;48.154;17.102;2022-10-29T03:58:58;100582.34;;;12.91
58909;BMP280;44690;48.154;17.102;2022-10-29T04:00:30;100582.34;;;12.91
58909;BMP280;44690;48.154;17.102;2022-10-29T04:02:02;100575.41;;;12.90
58909;BMP280;44690;48.154;17.102;2022-10-29T04:03:34;100574.91;;;12.92
58909;BMP280;44690;48.154;17.102;2022-10-29T04:05:07;100557.28;;;12.93
58909;BMP280;44690;48.154;17.102;2022-10-29T04:06:39;100562.72;;;12.93
58909;BMP280;44690;48.154;17.102;2022-10-29T04:08:11;100556.16;;;12.96
58909;BMP280;44690;48.154;17.102;2022-10-29T04:09:43;100562.13;;;12.94
58909;BMP280;44690;48.154;17.102;2022-10-29T04:11:14;100560.69;;;12.93
58909;BMP280;44690;48.154;17.102;2022-10-29T04:12:46;100560.69;;;12.93
58909;BMP280;44690;48.154;17.102;2022-10-29T04:14:18;100567.97;;;12.91
58909;BMP280;44690;48.154;17.102;2022-10-29T04:15:54;100573.41;;;12.91
58909;BMP280;44690;48.154;17.102;2022-10-29T04:17:26;100577.44;;;12.90
58909;BMP280;44690;48.154;17.102;2022-10-29T04:18:58;100577.97;;;12.88
58909;BMP280;44690;48.154;17.102;2022-10-29T04:20:30;100578.69;;;12.89
58909;BMP280;44690;48.154;17.102;2022-10-29T04:22:22;100568.53;;;12.89
58909;BMP280;44690;48.154;17.102;2022-10-29T04:24:14;100565.81;;;12.89
58909;BMP280;44690;48.154;17.102;2022-10-29T04:26:06;100561.06;;;12.90
58909;BMP280;44690;48.154;17.102;2022-10-29T04:27:58;100558.34;;;12.90
58909;BMP280;44690;48.154;17.102;2022-10-29T04:29:50;100563.63;;;12.88
58909;BMP280;44690;48.154;17.102;2022-10-29T04:31:22;100552.56;;;12.86
58909;BMP280;44690;48.154;17.102;2022-10-29T04:32:55;100549.84;;;12.86
58909;BMP280;44690;48.154;17.102;2022-10-29T04:34:28;100558.00;;;12.86
58909;BMP280;44690;48.154;17.102;2022-10-29T04:36:00;100554.41;;;12.83
58909;BMP280;44690;48.154;17.102;2022-10-29T04:37:32;100555.66;;;12.82
58909;BMP280;44690;48.154;17.102;2022-10-29T04:39:03;100561.09;;;12.82
58909;BMP280;44690;48.154;17.102;2022-10-29T04:40:35;100554.41;;;12.83
58909;BMP280;44690;48.154;17.102;2022-10-29T04:42:07;100565.28;;;12.83
58909;BMP280;44690;48.154;17.102;2022-10-29T04:43:39;100547.47;;;12.82
58909;BMP280;44690;48.154;17.102;2022-10-29T04:45:11;100548.94;;;12.83
58909;BMP280;44690;48.154;17.102;2022-10-29T04:46:43;100550.75;;;12.81
58909;BMP280;44690;48.154;17.102;2022-10-29T04:48:15;100554.06;;;12.79
58909;BMP280;44690;48.154;17.102;2022-10-29T04:49:47;100560.22;;;12.80
58909;BMP280;44690;48.154;17.102;2022-10-29T04:51:19;100567.81;;;12.81
58909;BMP280;44690;48.154;17.102;2022-10-29T04:52:51;100567.09;;;12.81
58909;BMP280;44690;48.154;17.102;2022-10-29T04:54:23;100568.41;;;12.80
58909;BMP280;44690;48.154;17.102;2022-10-29T04:55:58;100568.41;;;12.80
58909;BMP280;44690;48.154;17.102;2022-10-29T04:57:32;100576.56;;;12.80
58909;BMP280;44690;48.154;17.102;2022-10-29T04:59:03;100581.81;;;12.78
58909;BMP280;44690;48.154;17.102;2022-10-29T05:00:35;100594.19;;;12.79
58909;BMP280;44690;48.154;17.102;2022-10-29T05:02:08;100597.06;;;12.81
58909;BMP280;44690;48.154;17.102;2022-10-29T05:03:40;100596.50;;;12.82
58909;BMP280;44690;48.154;17.102;2022-10-29T05:05:12;100589.97;;;12.85
58909;BMP280;44690;48.154;17.102;2022-10-29T05:06:44;100590.88;;;12.88
58909;BMP280;44690;48.154;17.102;2022-10-29T05:08:16;100588.88;;;12.88
58909;BMP280;44690;48.154;17.102;2022-10-29T05:09:48;100597.22;;;12.90
58909;BMP280;44690;48.154;17.102;2022-10-29T05:11:20;100598.31;;;12.87
58909;BMP280;44690;48.154;17.102;2022-10-29T05:12:59;100592.88;;;12.87
58909;BMP280;44690;48.154;17.102;2022-10-29T05:14:31;100594.84;;;12.87
58909;BMP280;44690;48.154;17.102;2022-10-29T05:16:03;100589.41;;;12.87
58909;BMP280;44690;48.154;17.102;2022-10-29T05:17:36;100591.44;;;12.86
58909;BMP280;44690;48.154;17.102;2022-10-29T05:19:09;100591.44;;;12.86
58909;BMP280;44690;48.154;17.102;2022-10-29T05:20:41;100595.44;;;12.85
58909;BMP280;44690;48.154;17.102;2022-10-29T05:22:13;100597.44;;;12.85
58909;BMP280;44690;48.154;17.102;2022-10-29T05:23:45;100602.31;;;12.86
58909;BMP280;44690;48.154;17.102;2022-10-29T05:25:16;100603.78;;;12.87
58909;BMP280;44690;48.154;17.102;2022-10-29T05:26:48;100593.44;;;12.86
58909;BMP280;44690;48.154;17.102;2022-10-29T05:28:21;100595.44;;;12.85
58909;BMP280;44690;48.154;17.102;2022-10-29T05:29:53;100590.53;;;12.84
58909;BMP280;44690;48.154;17.102;2022-10-29T05:31:25;100588.53;;;12.84
58909;BMP280;44690;48.154;17.102;2022-10-29T05:32:57;100599.44;;;12.84
58909;BMP280;44690;48.154;17.102;2022-10-29T05:34:29;100591.25;;;12.84
58909;BMP280;44690;48.154;17.102;2022-10-29T05:36:01;100591.78;;;12.83
58909;BMP280;44690;48.154;17.102;2022-10-29T05:37:33;100596.50;;;12.82
58909;BMP280;44690;48.154;17.102;2022-10-29T05:39:05;100586.16;;;12.81
58909;BMP280;44690;48.154;17.102;2022-10-29T05:40:37;100592.34;;;12.81
58909;BMP280;44690;48.154;17.102;2022-10-29T05:42:09;100596.34;;;12.80
58909;BMP280;44690;48.154;17.102;2022-10-29T05:43:41;100610.69;;;12.81
58909;BMP280;44690;48.154;17.102;2022-10-29T05:45:13;100609.25;;;12.80
58909;BMP280;44690;48.154;17.102;2022-10-29T05:46:48;100611.25;;;12.79
58909;BMP280;44690;48.154;17.102;2022-10-29T05:48:20;100603.63;;;12.78
58909;BMP280;44690;48.154;17.102;2022-10-29T05:49:52;100616.72;;;12.79
58909;BMP280;44690;48.154;17.102;2022-10-29T05:51:24;100615.97;;;12.79
58909;BMP280;44690;48.154;17.102;2022-10-29T05:52:57;100632.31;;;12.79
58909;BMP280;44690;48.154;17.102;2022-10-29T05:54:30;100617.44;;;12.80
58909;BMP280;44690;48.154;17.102;2022-10-29T05:56:01;100616.13;;;12.81
58909;BMP280;44690;48.154;17.102;2022-10-29T05:57:33;100622.28;;;12.81
58909;BMP280;44690;48.154;17.102;2022-10-29T05:59:05;100617.56;;;12.82
58909;BMP280;44690;48.154;17.102;2022-10-29T06:00:38;100617.44;;;12.80
58909;BMP280;44690;48.154;17.102;2022-10-29T06:02:10;100618.84;;;12.81
58909;BMP280;44690;48.154;17.102;2022-10-29T06:03:42;100619.44;;;12.79
58909;BMP280;44690;48.154;17.102;2022-10-29T06:05:14;100611.78;;;12.78
58909;BMP280;44690;48.154;17.102;2022-10-29T06:06:46;100617.22;;;12.78
58909;BMP280;44690;48.154;17.102;2022-10-29T06:08:19;100605.44;;;12.75
58909;BMP280;44690;48.154;17.102;2022-10-29T06:09:51;100605.63;;;12.77
58909;BMP280;44690;48.154;17.102;2022-10-29T06:11:23;100598.00;;;12.76
58909;BMP280;44690;48.154;17.102;2022-10-29T06:12:55;100596.00;;;12.76
58909;BMP280;44690;48.154;17.102;2022-10-29T06:14:27;100593.06;;;12.74
58909;BMP280;44690;48.154;17.102;2022-10-29T06:15:59;100588.38;;;12.75
58909;BMP280;44690;48.154;17.102;2022-10-29T06:17:31;100593.81;;;12.75
58909;BMP280;44690;48.154;17.102;2022-10-29T06:19:03;100581.66;;;12.76
58909;BMP280;44690;48.154;17.102;2022-10-29T06:20:36;100591.09;;;12.75
58909;BMP280;44690;48.154;17.102;2022-10-29T06:22:08;100590.34;;;12.74
58909;BMP280;44690;48.154;17.102;2022-10-29T06:23:40;100578.94;;;12.76
58909;BMP280;44690;48.154;17.102;2022-10-29T06:25:12;100575.47;;;12.75
58909;BMP280;44690;48.154;17.102;2022-10-29T06:26:44;100576.72;;;12.74
58909;BMP280;44690;48.154;17.102;2022-10-29T06:28:16;100580.72;;;12.73
58909;BMP280;44690;48.154;17.102;2022-10-29T06:29:49;100581.44;;;12.73
58909;BMP280;44690;48.154;17.102;2022-10-29T06:31:21;100585.81;;;12.77
58909;BMP280;44690;48.154;17.102;2022-10-29T06:32:53;100584.53;;;12.78
58909;BMP280;44690;48.154;17.102;2022-10-29T06:34:25;100589.09;;;12.75
58909;BMP280;44690;48.154;17.102;2022-10-29T06:35:58;100580.94;;;12.75
58909;BMP280;44690;48.154;17.102;2022-10-29T06:37:31;100580.94;;;12.75
58909;BMP280;44690;48.154;17.102;2022-10-29T06:39:03;100587.28;;;12.78
58909;BMP280;44690;48.154;17.102;2022-10-29T06:40:35;100584.38;;;12.76
58909;BMP280;44690;48.154;17.102;2022-10-29T06:42:07;100579.66;;;12.76
58909;BMP280;44690;48.154;17.102;2022-10-29T06:43:39;100584.19;;;12.73
58909;BMP280;44690;48.154;17.102;2022-10-29T06:45:12;100578.59;;;12.71
58909;BMP280;44690;48.154;17.102;2022-10-29T06:46:44;100582.59;;;12.70
58909;BMP280;44690;48.154;17.102;2022-10-29T06:48:16;100587.47;;;12.72
58909;BMP280;44690;48.154;17.102;2022-10-29T06:49:53;100589.28;;;12.69
58909;BMP280;44690;48.154;17.102;2022-10-29T06:51:25;100592.56;;;12.68
58909;BMP280;44690;48.154;17.102;2022-10-29T06:52:57;100596.56;;;12.67
58909;BMP280;44690;48.154;17.102;2022-10-29T06:54:30;100594.72;;;12.69
58909;BMP280;44690;48.154;17.102;2022-10-29T06:56:02;100596.94;;;12.71
58909;BMP280;44690;48.154;17.102;2022-10-29T06:57:34;100600.94;;;12.70
58909;BMP280;44690;48.154;17.102;2022-10-29T06:59:06;100597.66;;;12.71
58909;BMP280;44690;48.154;17.102;2022-10-29T07:00:38;100590.22;;;12.72
58909;BMP280;44690;48.154;17.102;2022-10-29T07:02:11;100587.63;;;12.74
58909;BMP280;44690;48.154;17.102;2022-10-29T07:03:43;100580.56;;;12.79
58909;BMP280;44690;48.154;17.102;2022-10-29T07:05:15;100585.09;;;12.84
58909;BMP280;44690;48.154;17.102;2022-10-29T07:06:47;100589.41;;;12.87
58909;BMP280;44690;48.154;17.102;2022-10-29T07:08:19;100583.44;;;12.88
58909;BMP280;44690;48.154;17.102;2022-10-29T07:09:51;100585.06;;;12.91
58909;BMP280;44690;48.154;17.102;2022-10-29T07:11:23;100579.63;;;12.91
58909;BMP280;44690;48.154;17.102;2022-10-29T07:12:54;100585.94;;;12.94
58909;BMP280;44690;48.154;17.102;2022-10-29T07:14:26;100583.59;;;12.98
58909;BMP280;44690;48.154;17.102;2022-10-29T07:15:58;100592.47;;;12.98
58909;BMP280;44690;48.154;17.102;2022-10-29T07:17:30;100587.91;;;13.01
58909;BMP280;44690;48.154;17.102;2022-10-29T07:19:03;100587.03;;;12.98
58909;BMP280;44690;48.154;17.102;2022-10-29T07:20:36;100581.19;;;13.02
58909;BMP280;44690;48.154;17.102;2022-10-29T07:22:08;100585.19;;;13.01
58909;BMP280;44690;48.154;17.102;2022-10-29T07:23:40;100582.63;;;13.03
58909;BMP280;44690;48.154;17.102;2022-10-29T07:25:12;100580.47;;;13.01
58909;BMP280;44690;48.154;17.102;2022-10-29T07:26:44;100591.53;;;13.04
58909;BMP280;44690;48.154;17.102;2022-10-29T07:28:17;100584.13;;;13.04
58909;BMP280;44690;48.154;17.102;2022-10-29T07:29:51;100587.00;;;13.06
58909;BMP280;44690;48.154;17.102;2022-10-29T07:31:23;100590.44;;;13.07
58909;BMP280;44690;48.154;17.102;2022-10-29T07:32:55;100590.63;;;13.09
58909;BMP280;44690;48.154;17.102;2022-10-29T07:34:27;100592.25;;;13.12
58909;BMP280;44690;48.154;17.102;2022-10-29T07:35:59;100595.84;;;13.14
58909;BMP280;44690;48.154;17.102;2022-10-29T07:37:31;100591.13;;;13.15
58909;BMP280;44690;48.154;17.102;2022-10-29T07:39:03;100589.31;;;13.17
58909;BMP280;44690;48.154;17.102;2022-10-29T07:40:35;100591.31;;;13.17
58909;BMP280;44690;48.154;17.102;2022-10-29T07:42:07;100589.31;;;13.17
58909;BMP280;44690;48.154;17.102;2022-10-29T07:43:39;100584.03;;;13.19
58909;BMP280;44690;48.154;17.102;2022-10-29T07:45:11;100596.38;;;13.20
58909;BMP280;44690;48.154;17.102;2022-10-29T07:46:43;100600.00;;;13.23
58909;BMP280;44690;48.154;17.102;2022-10-29T07:48:15;100598.72;;;13.24
58909;BMP280;44690;48.154;17.102;2022-10-29T07:49:48;100602.19;;;13.24
58909;BMP280;44690;48.154;17.102;2022-10-29T07:51:19;100611.47;;;13.21
58909;BMP280;44690;48.154;17.102;2022-10-29T07:52:52;100620.19;;;13.20
58909;BMP280;44690;48.154;17.102;2022-10-29T07:54:24;100627.06;;;13.21
58909;BMP280;44690;48.154;17.102;2022-10-29T07:55:56;100627.47;;;13.17
58909;BMP280;44690;48.154;17.102;2022-10-29T07:57:28;100628.00;;;13.16
58909;BMP280;44690;48.154;17.102;2022-10-29T07:59:00;100637.09;;;13.18
58909;BMP280;44690;48.154;17.102;2022-10-29T08:00:33;100628.22;;;13.18
58909;BMP280;44690;48.154;17.102;2022-10-29T08:02:07;100627.47;;;13.17
58909;BMP280;44690;48.154;17.102;2022-10-29T08:03:39;100619.31;;;13.17
58909;BMP280;44690;48.154;17.102;2022-10-29T08:05:11;100623.47;;;13.18
58909;BMP280;44690;48.154;17.102;2022-10-29T08:06:43;100613.44;;;13.21
58909;BMP280;44690;48.154;17.102;2022-10-29T08:08:15;100619.25;;;13.25
58909;BMP280;44690;48.154;17.102;2022-10-29T08:09:48;100625.97;;;13.32
58909;BMP280;44690;48.154;17.102;2022-10-29T08:11:20;100627.19;;;13.38
58909;BMP280;44690;48.154;17.102;2022-10-29T08:12:54;100621.53;;;13.44
58909;BMP280;44690;48.154;17.102;2022-10-29T08:14:27;100630.78;;;13.48
58909;BMP280;44690;48.154;17.102;2022-10-29T08:15:59;100628.41;;;13.52
58909;BMP280;44690;48.154;17.102;2022-10-29T08:17:31;100633.88;;;13.52
58909;BMP280;44690;48.154;17.102;2022-10-29T08:19:03;100630.41;;;13.52
58909;BMP280;44690;48.154;17.102;2022-10-29T08:20:35;100634.56;;;13.53
58909;BMP280;44690;48.154;17.102;2022-10-29T08:22:07;100631.16;;;13.52
58909;BMP280;44690;48.154;17.102;2022-10-29T08:23:39;100625.69;;;13.52
58909;BMP280;44690;48.154;17.102;2022-10-29T08:25:10;100618.38;;;13.55
58909;BMP280;44690;48.154;17.102;2022-10-29T08:26:42;100624.16;;;13.59
58909;BMP280;44690;48.154;17.102;2022-10-29T08:28:14;100618.69;;;13.59
58909;BMP280;44690;48.154;17.102;2022-10-29T08:29:46;100628.53;;;13.62
58909;BMP280;44690;48.154;17.102;2022-10-29T08:31:18;100625.06;;;13.62
58909;BMP280;44690;48.154;17.102;2022-10-29T08:32:50;100619.63;;;13.62
58909;BMP280;44690;48.154;17.102;2022-10-29T08:34:22;100616.34;;;13.63
58909;BMP280;44690;48.154;17.102;2022-10-29T08:35:54;100608.88;;;13.64
58909;BMP280;44690;48.154;17.102;2022-10-29T08:37:26;100617.22;;;13.66
58909;BMP280;44690;48.154;17.102;2022-10-29T08:38:58;100617.38;;;13.68
58909;BMP280;44690;48.154;17.102;2022-10-29T08:40:33;100614.84;;;13.70
58909;BMP280;44690;48.154;17.102;2022-10-29T08:45:44;100613.56;;;13.71
58909;BMP280;44690;48.154;17.102;2022-10-29T08:47:20;100606.09;;;13.71
58909;BMP280;44690;48.154;17.102;2022-10-29T08:48:54;100607.38;;;13.70
58909;BMP280;44690;48.154;17.102;2022-10-29T08:50:27;100603.22;;;13.69
58909;BMP280;44690;48.154;17.102;2022-10-29T08:52:05;100599.81;;;13.61
58909;BMP280;44690;48.154;17.102;2022-10-29T08:53:45;100615.84;;;13.57
58909;BMP280;44690;48.154;17.102;2022-10-29T08:55:37;100606.75;;;13.54
58909;BMP280;44690;48.154;17.102;2022-10-29T08:57:13;100609.13;;;13.50
58909;BMP280;44690;48.154;17.102;2022-10-29T08:58:53;100614.41;;;13.48
58909;BMP280;44690;48.154;17.102;2022-10-29T09:00:29;100621.50;;;13.51
58909;BMP280;44690;48.154;17.102;2022-10-29T09:02:01;100620.75;;;13.51
58909;BMP280;44690;48.154;17.102;2022-10-29T09:03:34;100608.06;;;13.46
58909;BMP280;44690;48.154;17.102;2022-10-29T09:05:15;100612.25;;;13.47
58909;BMP280;44690;48.154;17.102;2022-10-29T09:10:34;100607.72;;;13.42
58909;BMP280;44690;48.154;17.102;2022-10-29T09:13:49;100607.38;;;13.38
58909;BMP280;44690;48.154;17.102;2022-10-29T09:16:59;100605.38;;;13.38